sensor_id;sensor_type;location;lat;lon;timestamp;temperature;humidity
10572;DHT22;5334;48.928;12.704;2023-05-10T00:01:23;14.00;99.90
10572;DHT22;5334;48.928;12.704;2023-05-10T00:06:15;14.00;99.90
10572;DHT22;5334;48.928;12.704;2023-05-10T00:08:40;14.00;99.90
10572;DHT22;5334;48.928;12.704;2023-05-10T00:11:06;14.00;99.90
10572;DHT22;5334;48.928;12.704;2023-05-10T00:13:32;14.00;99.90
10572;DHT22;5334;48.928;12.704;2023-05-10T00:15:58;13.90;99.90
10572;DHT22;5334;48.928;12.704;2023-05-10T00:18:23;13.90;99.90
10572;DHT22;5334;48.928;12.704;2023-05-10T00:20:49;13.80;99.90
10572;DHT22;5334;48.928;12.704;2023-05-10T00:23:15;13.80;99.90
10572;DHT22;5334;48.928;12.704;2023-05-10T00:25:40;13.80;99.90
10572;DHT22;5334;48.928;12.704;2023-05-10T00:28:06;13.70;99.90
10572;DHT22;5334;48.928;12.704;2023-05-10T00:30:32;13.80;99.90
10572;DHT22;5334;48.928;12.704;2023-05-10T00:32:57;13.80;99.90
10572;DHT22;5334;48.928;12.704;2023-05-10T00:35:23;13.80;99.90
10572;DHT22;5334;48.928;12.704;2023-05-10T00:37:49;13.80;99.90
10572;DHT22;5334;48.928;12.704;2023-05-10T00:40:14;13.80;99.90
10572;DHT22;5334;48.928;12.704;2023-05-10T00:42:40;13.80;99.90
10572;DHT22;5334;48.928;12.704;2023-05-10T00:45:06;13.80;99.90
10572;DHT22;5334;48.928;12.704;2023-05-10T00:47:32;13.80;99.90
10572;DHT22;5334;48.928;12.704;2023-05-10T00:49:59;13.80;99.90
10572;DHT22;5334;48.928;12.704;2023-05-10T00:52:29;13.90;99.90
10572;DHT22;5334;48.928;12.704;2023-05-10T00:54:55;13.90;99.90
10572;DHT22;5334;48.928;12.704;2023-05-10T00:57:22;13.90;99.90
10572;DHT22;5334;48.928;12.704;2023-05-10T00:59:48;13.90;99.90
10572;DHT22;5334;48.928;12.704;2023-05-10T01:02:14;13.90;99.90
10572;DHT22;5334;48.928;12.704;2023-05-10T01:04:40;13.90;99.90
10572;DHT22;5334;48.928;12.704;2023-05-10T01:07:06;13.90;99.90
10572;DHT22;5334;48.928;12.704;2023-05-10T01:09:32;13.80;99.90
10572;DHT22;5334;48.928;12.704;2023-05-10T01:11:58;13.90;99.90
10572;DHT22;5334;48.928;12.704;2023-05-10T01:14:25;13.80;99.90
10572;DHT22;5334;48.928;12.704;2023-05-10T01:16:52;13.80;99.90
10572;DHT22;5334;48.928;12.704;2023-05-10T01:22:24;13.80;99.90
10572;DHT22;5334;48.928;12.704;2023-05-10T01:37:45;13.70;99.90
10572;DHT22;5334;48.928;12.704;2023-05-10T01:40:22;13.70;99.90
10572;DHT22;5334;48.928;12.704;2023-05-10T01:42:59;13.70;99.90
10572;DHT22;5334;48.928;12.704;2023-05-10T01:45:38;13.70;99.90
10572;DHT22;5334;48.928;12.704;2023-05-10T01:48:09;13.70;99.90
10572;DHT22;5334;48.928;12.704;2023-05-10T01:50:38;13.70;99.90
10572;DHT22;5334;48.928;12.704;2023-05-10T01:53:07;13.60;99.90
10572;DHT22;5334;48.928;12.704;2023-05-10T01:55:38;13.60;99.90
10572;DHT22;5334;48.928;12.704;2023-05-10T01:58:09;13.50;99.90
10572;DHT22;5334;48.928;12.704;2023-05-10T02:00:40;13.50;99.90
10572;DHT22;5334;48.928;12.704;2023-05-10T02:03:08;13.40;99.90
10572;DHT22;5334;48.928;12.704;2023-05-10T02:05:36;13.40;99.90
10572;DHT22;5334;48.928;12.704;2023-05-10T02:08:03;13.40;99.90
10572;DHT22;5334;48.928;12.704;2023-05-10T02:10:33;13.40;99.90
10572;DHT22;5334;48.928;12.704;2023-05-10T02:12:59;13.30;99.90
10572;DHT22;5334;48.928;12.704;2023-05-10T02:15:26;13.30;99.90
10572;DHT22;5334;48.928;12.704;2023-05-10T02:17:54;13.30;99.90
10572;DHT22;5334;48.928;12.704;2023-05-10T02:20:22;13.40;99.90
10572;DHT22;5334;48.928;12.704;2023-05-10T02:22:51;13.50;99.90
10572;DHT22;5334;48.928;12.704;2023-05-10T02:25:19;13.50;99.90
10572;DHT22;5334;48.928;12.704;2023-05-10T02:27:47;13.50;99.90
10572;DHT22;5334;48.928;12.704;2023-05-10T02:30:14;13.50;99.90
10572;DHT22;5334;48.928;12.704;2023-05-10T02:32:40;13.50;99.90
10572;DHT22;5334;48.928;12.704;2023-05-10T02:35:07;13.50;99.90
10572;DHT22;5334;48.928;12.704;2023-05-10T02:37:34;13.50;99.90
10572;DHT22;5334;48.928;12.704;2023-05-10T02:40:01;13.50;99.90
10572;DHT22;5334;48.928;12.704;2023-05-10T02:42:29;13.50;99.90
10572;DHT22;5334;48.928;12.704;2023-05-10T02:45:02;13.50;99.90
10572;DHT22;5334;48.928;12.704;2023-05-10T02:47:29;13.50;99.90
10572;DHT22;5334;48.928;12.704;2023-05-10T02:49:55;13.50;99.90
10572;DHT22;5334;48.928;12.704;2023-05-10T02:52:24;13.50;99.90
10572;DHT22;5334;48.928;12.704;2023-05-10T02:54:55;13.40;99.90
10572;DHT22;5334;48.928;12.704;2023-05-10T02:57:34;13.40;99.90
10572;DHT22;5334;48.928;12.704;2023-05-10T03:00:01;13.40;99.90
10572;DHT22;5334;48.928;12.704;2023-05-10T03:02:27;13.40;99.90
10572;DHT22;5334;48.928;12.704;2023-05-10T03:04:53;13.30;99.90
10572;DHT22;5334;48.928;12.704;2023-05-10T03:07:19;13.30;99.90
10572;DHT22;5334;48.928;12.704;2023-05-10T03:09:47;13.20;99.90
10572;DHT22;5334;48.928;12.704;2023-05-10T03:12:41;13.20;99.90
10572;DHT22;5334;48.928;12.704;2023-05-10T03:15:21;13.20;99.90
10572;DHT22;5334;48.928;12.704;2023-05-10T03:18:15;13.20;99.90
10572;DHT22;5334;48.928;12.704;2023-05-10T03:20:48;13.10;99.90
10572;DHT22;5334;48.928;12.704;2023-05-10T03:23:38;13.10;99.90
10572;DHT22;5334;48.928;12.704;2023-05-10T03:26:06;13.00;99.90
10572;DHT22;5334;48.928;12.704;2023-05-10T03:28:34;13.00;99.90
10572;DHT22;5334;48.928;12.704;2023-05-10T03:31:00;13.70;99.90
10572;DHT22;5334;48.928;12.704;2023-05-10T03:33:27;13.00;99.90
10572;DHT22;5334;48.928;12.704;2023-05-10T03:35:53;13.00;99.90
10572;DHT22;5334;48.928;12.704;2023-05-10T03:38:19;13.00;99.90
10572;DHT22;5334;48.928;12.704;2023-05-10T03:40:44;12.90;99.90
10572;DHT22;5334;48.928;12.704;2023-05-10T03:43:10;12.90;99.90
10572;DHT22;5334;48.928;12.704;2023-05-10T03:45:36;12.90;99.90
10572;DHT22;5334;48.928;12.704;2023-05-10T03:48:01;12.90;99.90
10572;DHT22;5334;48.928;12.704;2023-05-10T03:50:27;12.90;99.90
10572;DHT22;5334;48.928;12.704;2023-05-10T03:52:53;13.00;99.90
10572;DHT22;5334;48.928;12.704;2023-05-10T03:55:18;12.90;99.90
10572;DHT22;5334;48.928;12.704;2023-05-10T03:57:44;12.90;99.90
10572;DHT22;5334;48.928;12.704;2023-05-10T04:00:10;12.80;99.90
10572;DHT22;5334;48.928;12.704;2023-05-10T04:02:36;12.80;99.90
10572;DHT22;5334;48.928;12.704;2023-05-10T04:05:02;12.80;99.90
10572;DHT22;5334;48.928;12.704;2023-05-10T04:07:28;12.70;99.90
10572;DHT22;5334;48.928;12.704;2023-05-10T04:09:53;12.70;99.90
10572;DHT22;5334;48.928;12.704;2023-05-10T04:12:19;12.70;99.90
10572;DHT22;5334;48.928;12.704;2023-05-10T04:17:11;12.60;99.90
10572;DHT22;5334;48.928;12.704;2023-05-10T04:19:36;12.60;99.90
10572;DHT22;5334;48.928;12.704;2023-05-10T04:22:02;12.20;99.90
10572;DHT22;5334;48.928;12.704;2023-05-10T04:24:28;12.10;99.90
10572;DHT22;5334;48.928;12.704;2023-05-10T04:26:54;12.70;99.90
10572;DHT22;5334;48.928;12.704;2023-05-10T04:29:20;12.40;99.90
10572;DHT22;5334;48.928;12.704;2023-05-10T04:31:46;12.30;99.90
10572;DHT22;5334;48.928;12.704;2023-05-10T04:34:12;12.60;99.90
10572;DHT22;5334;48.928;12.704;2023-05-10T04:36:37;12.20;99.90
10572;DHT22;5334;48.928;12.704;2023-05-10T04:41:30;12.20;99.90
10572;DHT22;5334;48.928;12.704;2023-05-10T04:43:55;12.30;99.90
10572;DHT22;5334;48.928;12.704;2023-05-10T04:46:21;11.30;99.90
10572;DHT22;5334;48.928;12.704;2023-05-10T04:48:47;12.30;99.90
10572;DHT22;5334;48.928;12.704;2023-05-10T04:51:13;12.10;99.90
10572;DHT22;5334;48.928;12.704;2023-05-10T04:53:39;12.10;99.90
10572;DHT22;5334;48.928;12.704;2023-05-10T04:56:06;12.10;99.90
10572;DHT22;5334;48.928;12.704;2023-05-10T04:58:32;12.20;99.90
10572;DHT22;5334;48.928;12.704;2023-05-10T05:01:05;12.20;99.90
10572;DHT22;5334;48.928;12.704;2023-05-10T05:03:32;12.20;99.90
10572;DHT22;5334;48.928;12.704;2023-05-10T05:05:58;12.10;99.90
10572;DHT22;5334;48.928;12.704;2023-05-10T05:08:23;12.10;99.90
10572;DHT22;5334;48.928;12.704;2023-05-10T05:10:49;11.70;99.90
10572;DHT22;5334;48.928;12.704;2023-05-10T05:13:15;12.10;99.90
10572;DHT22;5334;48.928;12.704;2023-05-10T05:15:41;12.20;99.90
10572;DHT22;5334;48.928;12.704;2023-05-10T05:18:06;12.20;99.90
10572;DHT22;5334;48.928;12.704;2023-05-10T05:20:33;12.10;99.90
10572;DHT22;5334;48.928;12.704;2023-05-10T05:23:00;12.20;99.90
10572;DHT22;5334;48.928;12.704;2023-05-10T05:25:25;12.00;99.90
10572;DHT22;5334;48.928;12.704;2023-05-10T05:27:51;12.00;99.90
10572;DHT22;5334;48.928;12.704;2023-05-10T05:30:17;12.00;99.90
10572;DHT22;5334;48.928;12.704;2023-05-10T05:32:42;11.80;99.90
10572;DHT22;5334;48.928;12.704;2023-05-10T05:35:08;11.90;99.90
10572;DHT22;5334;48.928;12.704;2023-05-10T05:37:34;12.00;99.90
10572;DHT22;5334;48.928;12.704;2023-05-10T05:40:00;12.00;99.90
10572;DHT22;5334;48.928;12.704;2023-05-10T05:42:27;12.20;99.90
10572;DHT22;5334;48.928;12.704;2023-05-10T05:44:53;12.10;99.90
10572;DHT22;5334;48.928;12.704;2023-05-10T05:47:18;11.60;99.90
10572;DHT22;5334;48.928;12.704;2023-05-10T05:49:44;12.00;99.90
10572;DHT22;5334;48.928;12.704;2023-05-10T05:52:11;10.50;99.90
10572;DHT22;5334;48.928;12.704;2023-05-10T05:54:37;11.70;99.90
10572;DHT22;5334;48.928;12.704;2023-05-10T05:57:02;12.00;99.90
10572;DHT22;5334;48.928;12.704;2023-05-10T05:59:28;12.00;99.90
10572;DHT22;5334;48.928;12.704;2023-05-10T06:01:54;12.00;99.90
10572;DHT22;5334;48.928;12.704;2023-05-10T06:04:20;11.90;99.90
10572;DHT22;5334;48.928;12.704;2023-05-10T06:06:45;11.70;99.90
10572;DHT22;5334;48.928;12.704;2023-05-10T06:09:11;12.00;99.90
10572;DHT22;5334;48.928;12.704;2023-05-10T06:11:37;12.00;99.90
10572;DHT22;5334;48.928;12.704;2023-05-10T06:14:03;12.10;99.90
10572;DHT22;5334;48.928;12.704;2023-05-10T06:16:34;12.10;99.90
10572;DHT22;5334;48.928;12.704;2023-05-10T06:18:59;12.10;99.90
10572;DHT22;5334;48.928;12.704;2023-05-10T06:23:51;11.90;99.90
10572;DHT22;5334;48.928;12.704;2023-05-10T06:26:17;11.90;99.90
10572;DHT22;5334;48.928;12.704;2023-05-10T06:28:42;12.00;99.90
10572;DHT22;5334;48.928;12.704;2023-05-10T06:31:08;11.90;99.90
10572;DHT22;5334;48.928;12.704;2023-05-10T06:33:34;11.90;99.90
10572;DHT22;5334;48.928;12.704;2023-05-10T06:36:00;12.00;99.90
10572;DHT22;5334;48.928;12.704;2023-05-10T06:38:25;12.00;99.90
10572;DHT22;5334;48.928;12.704;2023-05-10T06:40:51;12.00;99.90
10572;DHT22;5334;48.928;12.704;2023-05-10T06:43:17;12.00;99.90
10572;DHT22;5334;48.928;12.704;2023-05-10T06:45:43;12.10;99.90
10572;DHT22;5334;48.928;12.704;2023-05-10T06:48:08;12.00;99.90
10572;DHT22;5334;48.928;12.704;2023-05-10T06:50:34;11.40;99.90
10572;DHT22;5334;48.928;12.704;2023-05-10T06:53:00;12.20;99.90
10572;DHT22;5334;48.928;12.704;2023-05-10T06:55:27;12.30;99.90
10572;DHT22;5334;48.928;12.704;2023-05-10T06:57:53;12.40;99.90
10572;DHT22;5334;48.928;12.704;2023-05-10T07:00:20;12.30;99.90
10572;DHT22;5334;48.928;12.704;2023-05-10T07:02:46;12.30;99.90
10572;DHT22;5334;48.928;12.704;2023-05-10T07:05:12;12.30;99.90
10572;DHT22;5334;48.928;12.704;2023-05-10T07:07:38;12.30;99.90
10572;DHT22;5334;48.928;12.704;2023-05-10T07:10:04;12.30;99.90
10572;DHT22;5334;48.928;12.704;2023-05-10T07:12:30;12.40;99.90
10572;DHT22;5334;48.928;12.704;2023-05-10T07:14:55;12.40;99.90
10572;DHT22;5334;48.928;12.704;2023-05-10T07:17:21;12.30;99.90
10572;DHT22;5334;48.928;12.704;2023-05-10T07:19:47;12.50;99.90
10572;DHT22;5334;48.928;12.704;2023-05-10T07:22:12;12.60;99.90
10572;DHT22;5334;48.928;12.704;2023-05-10T07:24:38;12.60;99.90
10572;DHT22;5334;48.928;12.704;2023-05-10T07:27:04;11.90;99.90
10572;DHT22;5334;48.928;12.704;2023-05-10T07:29:29;12.70;99.90
10572;DHT22;5334;48.928;12.704;2023-05-10T07:31:55;13.20;99.90
10572;DHT22;5334;48.928;12.704;2023-05-10T07:34:21;12.80;99.90
10572;DHT22;5334;48.928;12.704;2023-05-10T07:36:46;12.80;99.90
10572;DHT22;5334;48.928;12.704;2023-05-10T07:39:12;12.80;99.90
10572;DHT22;5334;48.928;12.704;2023-05-10T07:41:38;12.60;99.90
10572;DHT22;5334;48.928;12.704;2023-05-10T07:44:04;12.60;99.90
10572;DHT22;5334;48.928;12.704;2023-05-10T07:46:30;12.70;99.90
10572;DHT22;5334;48.928;12.704;2023-05-10T07:48:56;12.70;99.90
10572;DHT22;5334;48.928;12.704;2023-05-10T07:51:21;12.70;99.90
10572;DHT22;5334;48.928;12.704;2023-05-10T07:53:47;12.70;99.90
10572;DHT22;5334;48.928;12.704;2023-05-10T07:56:27;12.80;99.90
10572;DHT22;5334;48.928;12.704;2023-05-10T07:58:55;12.80;99.90
10572;DHT22;5334;48.928;12.704;2023-05-10T08:01:22;12.90;99.90
10572;DHT22;5334;48.928;12.704;2023-05-10T08:03:48;12.80;99.90
10572;DHT22;5334;48.928;12.704;2023-05-10T08:06:15;12.80;99.90
10572;DHT22;5334;48.928;12.704;2023-05-10T08:08:41;12.90;99.90
10572;DHT22;5334;48.928;12.704;2023-05-10T08:11:07;13.00;99.90
10572;DHT22;5334;48.928;12.704;2023-05-10T08:13:33;13.10;99.90
10572;DHT22;5334;48.928;12.704;2023-05-10T08:15:59;13.20;99.90
10572;DHT22;5334;48.928;12.704;2023-05-10T08:18:25;13.20;99.90
10572;DHT22;5334;48.928;12.704;2023-05-10T08:20:50;13.20;99.90
10572;DHT22;5334;48.928;12.704;2023-05-10T08:23:16;13.30;99.90
10572;DHT22;5334;48.928;12.704;2023-05-10T08:25:41;13.30;99.90
10572;DHT22;5334;48.928;12.704;2023-05-10T08:28:07;13.30;99.90
10572;DHT22;5334;48.928;12.704;2023-05-10T08:30:33;13.40;99.90
10572;DHT22;5334;48.928;12.704;2023-05-10T08:32:58;13.40;99.90
10572;DHT22;5334;48.928;12.704;2023-05-10T08:35:24;13.50;99.90
10572;DHT22;5334;48.928;12.704;2023-05-10T08:37:51;13.50;99.90
10572;DHT22;5334;48.928;12.704;2023-05-10T08:40:19;13.40;99.90
10572;DHT22;5334;48.928;12.704;2023-05-10T08:42:51;13.40;99.90
10572;DHT22;5334;48.928;12.704;2023-05-10T08:45:20;13.50;99.90
10572;DHT22;5334;48.928;12.704;2023-05-10T08:47:47;13.60;99.90
10572;DHT22;5334;48.928;12.704;2023-05-10T08:50:13;13.60;99.90
10572;DHT22;5334;48.928;12.704;2023-05-10T08:52:40;13.70;99.90
10572;DHT22;5334;48.928;12.704;2023-05-10T08:55:07;13.70;99.90
10572;DHT22;5334;48.928;12.704;2023-05-10T08:57:32;13.70;99.90
10572;DHT22;5334;48.928;12.704;2023-05-10T09:00:00;13.70;99.90
10572;DHT22;5334;48.928;12.704;2023-05-10T09:02:26;13.80;99.90
10572;DHT22;5334;48.928;12.704;2023-05-10T09:04:52;13.70;99.90
10572;DHT22;5334;48.928;12.704;2023-05-10T09:07:18;13.70;99.90
10572;DHT22;5334;48.928;12.704;2023-05-10T09:09:46;13.70;99.90
10572;DHT22;5334;48.928;12.704;2023-05-10T09:12:13;13.70;99.90
10572;DHT22;5334;48.928;12.704;2023-05-10T09:14:41;13.80;99.90
10572;DHT22;5334;48.928;12.704;2023-05-10T09:17:07;13.80;99.90
10572;DHT22;5334;48.928;12.704;2023-05-10T09:19:34;13.80;99.90
10572;DHT22;5334;48.928;12.704;2023-05-10T09:22:00;13.90;99.90
10572;DHT22;5334;48.928;12.704;2023-05-10T09:24:28;14.00;99.90
10572;DHT22;5334;48.928;12.704;2023-05-10T09:26:57;14.10;99.90
10572;DHT22;5334;48.928;12.704;2023-05-10T09:29:23;14.10;99.90
10572;DHT22;5334;48.928;12.704;2023-05-10T09:31:52;14.50;99.90
10572;DHT22;5334;48.928;12.704;2023-05-10T09:34:30;14.50;99.90
10572;DHT22;5334;48.928;12.704;2023-05-10T09:37:01;14.50;99.90
10572;DHT22;5334;48.928;12.704;2023-05-10T09:39:36;14.50;99.90
10572;DHT22;5334;48.928;12.704;2023-05-10T09:42:09;14.50;99.90
10572;DHT22;5334;48.928;12.704;2023-05-10T09:44:35;14.50;99.90
10572;DHT22;5334;48.928;12.704;2023-05-10T09:47:02;14.60;99.90
10572;DHT22;5334;48.928;12.704;2023-05-10T09:49:28;14.70;99.90
10572;DHT22;5334;48.928;12.704;2023-05-10T09:52:03;14.70;99.90
10572;DHT22;5334;48.928;12.704;2023-05-10T09:54:29;14.80;99.90
10572;DHT22;5334;48.928;12.704;2023-05-10T09:56:55;15.00;99.90
10572;DHT22;5334;48.928;12.704;2023-05-10T09:59:21;15.10;99.90
10572;DHT22;5334;48.928;12.704;2023-05-10T10:01:50;15.20;99.90
10572;DHT22;5334;48.928;12.704;2023-05-10T10:04:17;15.30;99.90
10572;DHT22;5334;48.928;12.704;2023-05-10T10:06:42;15.40;99.90
10572;DHT22;5334;48.928;12.704;2023-05-10T10:09:09;15.50;99.90
10572;DHT22;5334;48.928;12.704;2023-05-10T10:11:36;15.60;99.90
10572;DHT22;5334;48.928;12.704;2023-05-10T10:14:02;15.60;99.90
10572;DHT22;5334;48.928;12.704;2023-05-10T10:16:31;15.80;99.90
10572;DHT22;5334;48.928;12.704;2023-05-10T10:18:57;15.90;99.90
10572;DHT22;5334;48.928;12.704;2023-05-10T10:21:24;16.10;99.90
10572;DHT22;5334;48.928;12.704;2023-05-10T10:23:50;16.10;99.90
10572;DHT22;5334;48.928;12.704;2023-05-10T10:26:17;16.30;99.90
10572;DHT22;5334;48.928;12.704;2023-05-10T10:31:23;16.60;99.90
10572;DHT22;5334;48.928;12.704;2023-05-10T10:33:59;16.70;99.90
10572;DHT22;5334;48.928;12.704;2023-05-10T10:36:25;16.70;99.90
10572;DHT22;5334;48.928;12.704;2023-05-10T10:38:59;17.00;99.90
10572;DHT22;5334;48.928;12.704;2023-05-10T10:41:31;16.90;99.90
10572;DHT22;5334;48.928;12.704;2023-05-10T10:52:36;17.40;99.90
10572;DHT22;5334;48.928;12.704;2023-05-10T11:00:36;17.50;99.90
10572;DHT22;5334;48.928;12.704;2023-05-10T11:03:05;17.40;99.90
10572;DHT22;5334;48.928;12.704;2023-05-10T11:05:46;17.40;99.90
10572;DHT22;5334;48.928;12.704;2023-05-10T11:08:26;17.40;99.90
10572;DHT22;5334;48.928;12.704;2023-05-10T11:13:43;17.60;99.90
10572;DHT22;5334;48.928;12.704;2023-05-10T11:16:23;17.70;99.90
10572;DHT22;5334;48.928;12.704;2023-05-10T11:19:05;17.80;99.90
10572;DHT22;5334;48.928;12.704;2023-05-10T11:24:01;18.00;99.90
10572;DHT22;5334;48.928;12.704;2023-05-10T11:26:35;18.10;99.90
10572;DHT22;5334;48.928;12.704;2023-05-10T11:29:02;18.20;99.90
10572;DHT22;5334;48.928;12.704;2023-05-10T11:31:30;18.40;99.90
10572;DHT22;5334;48.928;12.704;2023-05-10T11:33:58;18.20;99.90
10572;DHT22;5334;48.928;12.704;2023-05-10T11:36:25;18.30;99.90
10572;DHT22;5334;48.928;12.704;2023-05-10T11:38:56;18.30;99.90
10572;DHT22;5334;48.928;12.704;2023-05-10T11:41:23;18.30;99.90
10572;DHT22;5334;48.928;12.704;2023-05-10T11:43:51;18.30;99.90
10572;DHT22;5334;48.928;12.704;2023-05-10T11:46:19;18.40;99.90
10572;DHT22;5334;48.928;12.704;2023-05-10T11:48:50;18.30;99.90
10572;DHT22;5334;48.928;12.704;2023-05-10T11:51:24;18.50;99.90
10572;DHT22;5334;48.928;12.704;2023-05-10T11:53:52;17.90;99.90
10572;DHT22;5334;48.928;12.704;2023-05-10T11:56:18;17.90;99.90
10572;DHT22;5334;48.928;12.704;2023-05-10T11:58:44;17.90;99.90
10572;DHT22;5334;48.928;12.704;2023-05-10T12:01:12;18.00;99.90
10572;DHT22;5334;48.928;12.704;2023-05-10T12:03:38;18.10;99.90
10572;DHT22;5334;48.928;12.704;2023-05-10T12:06:08;18.20;99.90
10572;DHT22;5334;48.928;12.704;2023-05-10T12:08:34;18.40;99.90
10572;DHT22;5334;48.928;12.704;2023-05-10T12:11:09;18.50;99.90
10572;DHT22;5334;48.928;12.704;2023-05-10T12:13:42;18.60;99.90
10572;DHT22;5334;48.928;12.704;2023-05-10T12:16:20;18.60;99.90
10572;DHT22;5334;48.928;12.704;2023-05-10T12:21:20;18.60;99.90
10572;DHT22;5334;48.928;12.704;2023-05-10T12:23:49;18.60;99.90
10572;DHT22;5334;48.928;12.704;2023-05-10T12:26:15;18.60;99.90
10572;DHT22;5334;48.928;12.704;2023-05-10T12:28:41;18.60;99.90
10572;DHT22;5334;48.928;12.704;2023-05-10T12:31:08;18.70;99.90
10572;DHT22;5334;48.928;12.704;2023-05-10T12:33:42;18.80;99.90
10572;DHT22;5334;48.928;12.704;2023-05-10T12:36:12;18.80;99.90
10572;DHT22;5334;48.928;12.704;2023-05-10T12:38:45;18.90;99.90
10572;DHT22;5334;48.928;12.704;2023-05-10T12:41:16;19.10;99.90
10572;DHT22;5334;48.928;12.704;2023-05-10T12:43:43;19.30;99.90
10572;DHT22;5334;48.928;12.704;2023-05-10T12:46:10;19.40;99.90
10572;DHT22;5334;48.928;12.704;2023-05-10T12:48:37;19.60;99.90
10572;DHT22;5334;48.928;12.704;2023-05-10T12:51:04;19.60;99.90
10572;DHT22;5334;48.928;12.704;2023-05-10T12:53:30;19.50;99.90
10572;DHT22;5334;48.928;12.704;2023-05-10T12:55:56;19.60;99.90
10572;DHT22;5334;48.928;12.704;2023-05-10T12:58:22;19.60;99.90
10572;DHT22;5334;48.928;12.704;2023-05-10T13:00:48;19.80;99.90
10572;DHT22;5334;48.928;12.704;2023-05-10T13:03:14;19.70;99.90
10572;DHT22;5334;48.928;12.704;2023-05-10T13:05:41;19.80;99.90
10572;DHT22;5334;48.928;12.704;2023-05-10T13:08:06;19.80;99.90
10572;DHT22;5334;48.928;12.704;2023-05-10T13:10:32;19.90;99.90
10572;DHT22;5334;48.928;12.704;2023-05-10T13:12:58;19.80;99.90
10572;DHT22;5334;48.928;12.704;2023-05-10T13:15:25;19.90;99.90
10572;DHT22;5334;48.928;12.704;2023-05-10T13:17:51;19.90;99.90
10572;DHT22;5334;48.928;12.704;2023-05-10T13:20:16;20.00;99.90
10572;DHT22;5334;48.928;12.704;2023-05-10T13:22:46;20.00;99.90
10572;DHT22;5334;48.928;12.704;2023-05-10T13:25:12;19.80;99.90
10572;DHT22;5334;48.928;12.704;2023-05-10T13:27:39;19.60;99.90
10572;DHT22;5334;48.928;12.704;2023-05-10T13:30:06;19.60;99.90
10572;DHT22;5334;48.928;12.704;2023-05-10T13:32:31;19.50;99.90
10572;DHT22;5334;48.928;12.704;2023-05-10T13:34:58;19.50;99.90
10572;DHT22;5334;48.928;12.704;2023-05-10T13:37:23;19.50;99.90
10572;DHT22;5334;48.928;12.704;2023-05-10T13:39:49;19.50;99.90
10572;DHT22;5334;48.928;12.704;2023-05-10T13:42:15;19.50;99.90
10572;DHT22;5334;48.928;12.704;2023-05-10T13:44:40;19.50;99.90
10572;DHT22;5334;48.928;12.704;2023-05-10T13:47:06;19.60;99.90
10572;DHT22;5334;48.928;12.704;2023-05-10T13:49:32;19.70;99.90
10572;DHT22;5334;48.928;12.704;2023-05-10T13:51:59;19.70;99.90
10572;DHT22;5334;48.928;12.704;2023-05-10T13:54:38;19.60;99.90
10572;DHT22;5334;48.928;12.704;2023-05-10T13:57:03;19.00;99.90
10572;DHT22;5334;48.928;12.704;2023-05-10T13:59:30;19.50;99.90
10572;DHT22;5334;48.928;12.704;2023-05-10T14:01:59;19.50;99.90
10572;DHT22;5334;48.928;12.704;2023-05-10T14:04:25;19.60;99.90
10572;DHT22;5334;48.928;12.704;2023-05-10T14:06:51;19.60;99.90
10572;DHT22;5334;48.928;12.704;2023-05-10T14:09:18;19.60;99.90
10572;DHT22;5334;48.928;12.704;2023-05-10T14:11:44;19.50;99.90
10572;DHT22;5334;48.928;12.704;2023-05-10T14:14:10;19.40;99.90
10572;DHT22;5334;48.928;12.704;2023-05-10T14:16:36;19.40;99.90
10572;DHT22;5334;48.928;12.704;2023-05-10T14:19:01;19.30;99.90
10572;DHT22;5334;48.928;12.704;2023-05-10T14:21:28;19.30;99.90
10572;DHT22;5334;48.928;12.704;2023-05-10T14:23:56;19.20;99.90
10572;DHT22;5334;48.928;12.704;2023-05-10T14:26:22;19.20;99.90
10572;DHT22;5334;48.928;12.704;2023-05-10T14:28:48;19.10;99.90
10572;DHT22;5334;48.928;12.704;2023-05-10T14:31:14;19.10;99.90
10572;DHT22;5334;48.928;12.704;2023-05-10T14:33:42;18.90;99.90
10572;DHT22;5334;48.928;12.704;2023-05-10T14:36:08;19.10;99.90
10572;DHT22;5334;48.928;12.704;2023-05-10T14:38:34;18.80;99.90
10572;DHT22;5334;48.928;12.704;2023-05-10T14:40:59;18.80;99.90
10572;DHT22;5334;48.928;12.704;2023-05-10T14:43:25;18.70;99.90
10572;DHT22;5334;48.928;12.704;2023-05-10T14:45:52;18.60;99.90
10572;DHT22;5334;48.928;12.704;2023-05-10T14:48:18;18.60;99.90
10572;DHT22;5334;48.928;12.704;2023-05-10T14:50:44;18.50;99.90
10572;DHT22;5334;48.928;12.704;2023-05-10T14:53:10;18.50;99.90
10572;DHT22;5334;48.928;12.704;2023-05-10T14:55:36;18.40;99.90
10572;DHT22;5334;48.928;12.704;2023-05-10T14:58:02;18.40;99.90
10572;DHT22;5334;48.928;12.704;2023-05-10T15:00:29;18.40;99.90
10572;DHT22;5334;48.928;12.704;2023-05-10T15:02:55;18.30;99.90
10572;DHT22;5334;48.928;12.704;2023-05-10T15:05:20;18.30;99.90
10572;DHT22;5334;48.928;12.704;2023-05-10T15:07:46;18.20;99.90
10572;DHT22;5334;48.928;12.704;2023-05-10T15:10:12;18.10;99.90
10572;DHT22;5334;48.928;12.704;2023-05-10T15:12:38;18.10;99.90
10572;DHT22;5334;48.928;12.704;2023-05-10T15:15:05;18.00;99.90
10572;DHT22;5334;48.928;12.704;2023-05-10T15:17:31;18.00;99.90
10572;DHT22;5334;48.928;12.704;2023-05-10T15:19:56;17.90;99.90
10572;DHT22;5334;48.928;12.704;2023-05-10T15:22:22;17.80;99.90
10572;DHT22;5334;48.928;12.704;2023-05-10T15:24:48;17.50;99.90
10572;DHT22;5334;48.928;12.704;2023-05-10T15:27:13;17.30;99.90
10572;DHT22;5334;48.928;12.704;2023-05-10T15:29:39;16.90;99.90
10572;DHT22;5334;48.928;12.704;2023-05-10T15:32:05;16.60;99.90
10572;DHT22;5334;48.928;12.704;2023-05-10T15:34:30;16.40;99.90
10572;DHT22;5334;48.928;12.704;2023-05-10T15:36:56;16.10;99.90
10572;DHT22;5334;48.928;12.704;2023-05-10T15:39:22;15.90;99.90
10572;DHT22;5334;48.928;12.704;2023-05-10T15:41:48;15.70;99.90
10572;DHT22;5334;48.928;12.704;2023-05-10T15:44:14;15.60;99.90
10572;DHT22;5334;48.928;12.704;2023-05-10T15:46:39;15.50;99.90
10572;DHT22;5334;48.928;12.704;2023-05-10T15:49:05;15.50;99.90
10572;DHT22;5334;48.928;12.704;2023-05-10T15:51:31;15.40;99.90
10572;DHT22;5334;48.928;12.704;2023-05-10T15:54:00;15.30;99.90
10572;DHT22;5334;48.928;12.704;2023-05-10T15:56:27;15.30;99.90
10572;DHT22;5334;48.928;12.704;2023-05-10T15:58:53;15.30;99.90
10572;DHT22;5334;48.928;12.704;2023-05-10T16:01:19;15.20;99.90
10572;DHT22;5334;48.928;12.704;2023-05-10T16:03:45;15.10;99.90
10572;DHT22;5334;48.928;12.704;2023-05-10T16:06:11;15.00;99.90
10572;DHT22;5334;48.928;12.704;2023-05-10T16:08:36;14.90;99.90
10572;DHT22;5334;48.928;12.704;2023-05-10T16:11:02;14.90;99.90
10572;DHT22;5334;48.928;12.704;2023-05-10T16:13:28;14.90;99.90
10572;DHT22;5334;48.928;12.704;2023-05-10T16:15:54;15.00;99.90
10572;DHT22;5334;48.928;12.704;2023-05-10T16:18:20;15.10;99.90
10572;DHT22;5334;48.928;12.704;2023-05-10T16:20:46;15.20;99.90